Airfield :
LOGIN :

Register | Disclaimer

   EN    FR    IT 

 










Legend :    VFR   Marginal VFR   IFR   Intensive IFR   Very Intensive IFR
Visi :
Ceiling :
>= 8 km
>= 3000ft
5 to 8 km
1000 to 3000 ft
1500m to 5 km
500 to 1000 ft
800 to 1500m
200 to 500 ft
< 800m
< 200 ft
Symbols :   Thunderstorms  Fog  Heavy snow  Heavy precipitations  Wind > 20 kt
SIGMETs :     Misc.  Thunderstorms  Icing  Turbulence  Mountain Waves  Volcanic Ashes







- Airport Elevation : 3 ft
- IATA code : DHR


EHKD - Den Helder De Kooy

CURRENT METAR :
  • 170825Z AUTO 09010KT 6000 BR NCD 04/03 Q1032 WHT 09010KT 8000 NSC

EXPIRED METARs :
  • 170755Z AUTO 09009KT 060V130 5000 BR NCD 03/02 Q1032 WHT 09010KT 6000 NSC TEMPO 4000 BR
  • 170725Z AUTO 09011KT 060V120 5000 BR NCD 03/02 Q1031 WHT 09010KT 6000 NSC TEMPO 4000 BR
  • 170713Z AUTO 09011KT 5000 BR NCD 04/03 Q1031 WHT 09010KT 6000 NSC TEMPO 4000 BR
  • 170655Z AUTO 09009KT 4200 BR NCD 04/03 Q1031 GRN 09010KT 6000 NSC TEMPO 4000 BR
  • 170625Z AUTO 10009KT 070V130 4200 BR NCD 03/03 Q1031 GRN 09010KT 6000 NSC TEMPO 4000 BR
  • 170605Z AUTO 09009KT 4800 BR NCD 04/03 Q1031 GRN 09010KT 6000 NSC TEMPO 4000 BR
  • 170555Z AUTO 09009KT 070V140 5000 BR NCD 04/03 Q1031 WHT 09010KT 6000 NSC TEMPO 4000 BR
  • 170541Z AUTO 09009KT 5000 BR NCD 04/03 Q1031 WHT 09010KT 6000 NSC TEMPO 4000 BR
  • 170525Z AUTO 09008KT 6000 BR NCD 04/03 Q1031 WHT 09010KT 6000 NSC

TAF TAF EHKD
Valid from the 17 at 06:00 until the 17 at 18:00 UTC


170544Z 1706/1718 10010KT 6000 NSC
PROB30 1706/1708 4000 BR
BECMG 1708/1710 CAVOK
No reported NOTAMs for that airfield.



MET'MAP, your aeronautical weather chart ! - Copyright ORBIFLY December 2007 - Disclaimer

ORBIFLY MET'MAP TEAM :

Programming & Development : Alexandra Zaïnal
Concept & Development : Baudouin d'Aumeries
Co-Development & Prog : Marc-Olivier Méhu
Technical & hardware support : Manuel Goepfert

Contact : metmap@orbifly.com




SOURCES & CREDITS :

   NOAA